createdAt,value
2019-03-27T05:07:15.566Z,11.53
2019-03-27T05:09:47.676Z,10.10
2019-03-27T05:18:39.472Z,11.20
2019-03-27T05:21:10.711Z,11.37
2019-03-27T05:33:10.236Z,11.47
2019-03-27T05:35:46.783Z,12.33
2019-03-27T05:38:18.805Z,13.13
2019-03-27T05:40:52.472Z,12.43
2019-03-27T05:43:24.540Z,12.87
2019-03-27T05:45:56.676Z,13.27
2019-03-27T05:48:28.670Z,13.50
2019-03-27T05:51:00.589Z,13.23
2019-03-27T05:53:32.754Z,12.63
2019-03-27T05:56:05.463Z,12.47
2019-03-27T05:58:37.783Z,11.60
2019-03-27T06:01:10.070Z,11.23
2019-03-27T06:03:41.968Z,9.60
2019-03-27T06:06:15.223Z,11.23
2019-03-27T06:11:43.671Z,8.83
2019-03-27T06:14:15.789Z,9.03
2019-03-27T06:16:47.742Z,9.40
2019-03-27T06:41:39.703Z,8.10
2019-03-27T06:44:11.652Z,8.27
2019-03-27T06:46:49.177Z,8.40
2019-03-27T06:49:21.450Z,8.20
2019-03-27T06:51:54.735Z,8.80
2019-03-27T06:54:25.618Z,8.10
2019-03-27T06:56:57.473Z,7.30
2019-03-27T06:59:32.185Z,9.00
2019-03-27T07:02:05.461Z,8.33
2019-03-27T07:04:43.497Z,8.53
2019-03-27T07:07:18.933Z,7.87
2019-03-27T07:09:55.857Z,7.33
2019-03-27T07:12:31.517Z,8.00
2019-03-27T07:15:02.162Z,7.33
2019-03-27T07:17:34.569Z,7.47
2019-03-27T07:20:08.315Z,7.37
2019-03-27T07:22:40.045Z,9.00
2019-03-27T09:31:07.713Z,3.45
2019-03-27T09:36:43.380Z,3.52
2019-03-27T09:39:22.472Z,3.33
2019-03-27T09:41:54.667Z,3.67
2019-03-27T09:47:34.457Z,3.30
2019-03-27T09:50:06.358Z,4.17
2019-03-27T09:52:39.617Z,3.50
2019-03-27T09:55:12.036Z,3.87
2019-03-27T09:57:44.143Z,3.77
2019-03-27T10:00:19.297Z,3.62
2019-03-27T10:02:51.197Z,3.98
2019-03-27T10:05:23.256Z,3.55
2019-03-27T10:07:55.105Z,5.72
2019-03-27T10:10:27.233Z,5.53
2019-03-27T10:12:59.110Z,5.60
2019-03-27T10:15:31.000Z,6.17
2019-03-27T17:32:14.115Z,8.30
2019-03-27T17:34:45.954Z,9.70
2019-03-27T17:37:19.031Z,8.80
2019-03-27T17:39:50.944Z,9.17
2019-03-27T17:42:23.131Z,9.20
2019-03-27T17:44:55.132Z,10.23
2019-03-27T17:47:27.130Z,9.30
2019-03-27T17:49:59.079Z,8.50
2019-03-27T17:52:31.228Z,9.20
2019-03-27T17:55:03.576Z,8.17
2019-03-27T17:57:35.842Z,8.83
2019-03-27T18:00:10.275Z,9.53
2019-03-27T18:02:42.405Z,9.60
2019-03-27T18:05:15.570Z,10.77
2019-03-27T18:07:47.992Z,10.03
2019-03-27T18:10:19.926Z,10.70
2019-03-27T18:12:52.233Z,10.87
2019-03-27T18:15:24.676Z,9.63
2019-03-27T18:17:56.627Z,10.73
2019-03-27T18:20:43.814Z,9.90
2019-03-27T18:23:18.830Z,9.80
2019-03-27T18:25:51.158Z,10.23
2019-03-27T18:28:23.325Z,10.40
2019-03-27T18:30:55.267Z,9.83
2019-03-27T18:33:27.840Z,10.23
2019-03-27T18:35:59.700Z,9.60
2019-03-27T18:38:32.878Z,9.67
2019-03-27T18:41:05.795Z,9.63
2019-03-27T18:43:40.019Z,10.13
2019-03-27T18:46:12.177Z,9.53
2019-03-27T18:48:44.841Z,8.73
2019-03-27T18:51:22.282Z,10.10
2019-03-27T18:53:59.956Z,9.93
2019-03-27T18:56:32.141Z,9.20
2019-03-27T18:59:05.479Z,10.33
2019-03-27T19:01:38.138Z,10.27
2019-03-27T19:04:10.236Z,9.00
2019-03-27T19:06:43.674Z,10.10
2019-03-27T19:09:16.599Z,11.33
2019-03-27T19:11:50.548Z,11.70
2019-03-27T19:14:28.383Z,11.57
2019-03-27T19:17:00.843Z,11.43
2019-03-27T19:19:32.961Z,11.37
2019-03-27T19:22:05.040Z,14.33
2019-03-27T19:24:44.885Z,12.67
2019-03-27T19:27:16.719Z,13.03
2019-03-27T19:29:49.228Z,13.27
2019-03-27T19:32:21.424Z,13.00
2019-03-27T19:34:54.176Z,12.53
2019-03-27T19:37:26.288Z,13.67
2019-03-27T19:40:00.987Z,14.97
2019-03-27T19:42:31.961Z,13.63
2019-03-27T19:45:04.832Z,14.40
2019-03-27T19:47:37.269Z,12.10
2019-03-27T19:50:10.145Z,21.80
2019-03-27T19:52:43.148Z,20.60
2019-03-27T19:55:15.143Z,23.27
2019-03-27T19:57:47.180Z,28.87
2019-03-27T20:00:20.645Z,26.13
2019-03-27T20:02:52.659Z,19.10
2019-03-27T20:05:25.647Z,34.47
2019-03-27T20:08:00.339Z,30.00
2019-03-27T20:10:34.303Z,26.27
2019-03-27T20:13:09.169Z,23.53
2019-03-27T20:15:41.713Z,22.10
2019-03-27T20:18:13.779Z,20.63
2019-03-27T20:20:46.153Z,19.03
2019-03-27T20:23:18.254Z,17.37
2019-03-27T20:25:52.292Z,15.33
2019-03-27T20:28:26.167Z,15.93
2019-03-27T20:30:58.452Z,13.53
2019-03-27T20:33:32.420Z,13.80
2019-03-27T20:36:06.282Z,13.20
2019-03-27T20:38:40.219Z,12.90
2019-03-27T20:41:18.834Z,12.47
2019-03-27T20:43:52.797Z,11.67
2019-03-27T20:46:29.136Z,10.77
2019-03-27T20:48:59.271Z,10.67
2019-03-27T20:51:33.064Z,10.70
2019-03-27T20:54:15.893Z,9.77
2019-03-27T20:56:48.665Z,9.80
2019-03-27T20:59:21.149Z,9.23
2019-03-27T21:01:54.067Z,9.13
2019-03-27T21:04:31.839Z,8.77
2019-03-27T21:07:05.590Z,8.13
2019-03-27T21:09:37.648Z,8.83
2019-03-27T21:12:09.734Z,7.80
2019-03-27T21:14:42.063Z,8.43
2019-03-27T21:17:14.277Z,8.37
2019-03-27T21:19:46.452Z,7.13
2019-03-27T21:22:18.433Z,7.60
2019-03-27T21:24:50.546Z,7.80
2019-03-27T21:27:23.540Z,8.00
2019-03-27T21:29:55.548Z,7.93
2019-03-27T21:32:27.537Z,8.37
2019-03-27T21:35:00.398Z,9.00
2019-03-27T21:37:32.895Z,8.53
2019-03-27T21:40:06.018Z,9.40
2019-03-27T21:42:38.237Z,9.50
2019-03-27T21:45:10.874Z,10.00
2019-03-27T21:47:43.176Z,10.13
2019-03-27T21:50:15.332Z,10.37
2019-03-27T21:53:00.013Z,10.80
2019-03-27T21:55:22.805Z,10.40
2019-03-27T21:57:56.274Z,10.50
2019-03-27T22:00:47.514Z,11.67
2019-03-27T22:03:19.796Z,11.70
2019-03-27T22:05:51.993Z,12.37
2019-03-27T22:08:23.998Z,11.17
2019-03-27T22:10:56.005Z,11.57
2019-03-27T22:13:27.948Z,10.87
2019-03-27T22:15:59.967Z,11.07
2019-03-27T22:18:33.552Z,11.20
2019-03-27T22:21:05.864Z,12.60
2019-03-27T22:23:39.128Z,15.67
2019-03-27T22:26:11.007Z,13.60
2019-03-27T22:35:31.087Z,12.47
2019-03-27T22:41:04.020Z,12.00
2019-03-27T22:43:35.985Z,11.50
2019-03-27T22:46:08.169Z,11.30
2019-03-27T22:48:40.114Z,12.10
2019-03-27T22:51:13.433Z,11.13
2019-03-27T22:53:45.661Z,10.83
2019-03-27T22:56:18.359Z,10.87
2019-03-27T22:59:07.655Z,10.80
2019-03-27T23:01:46.098Z,11.60
